Richmond, Missouri
Current Conditions -  °F | °C
As of 3:55 AM on Thursday 25 Dec 2014 (Local Time) from KGPH Reporting Station
Clear Clear  
Wind Chill: 27°   Ceiling: Unl
Heat Index: 32°   Visibility: 10mi
Dew Point: 30°   Wind: 5mph
Humidity: 93%   Direction: 140°SE
Pressure: 29.81"   Gusts: NA
Location:  39.28°N, 93.98°W
Report Text: KGPH 250955Z AUTO 14004KT 10SM CLR 00/M01 A2981 RMK AO2
Loading
Personal Weather Stations






























Interactive Weather Map New forecast layout! Learn more

10-Day Weather Forecast

Advertisements
Track Severe Weather on mobile